sensor_id;sensor_type;location;lat;lon;timestamp;P1;durP1;ratioP1;P2;durP2;ratioP2
56363;SDS011;42261;52.094;4.326;2022-09-01T00:01:28;1.08;;;0.63;;
56363;SDS011;42261;52.094;4.326;2022-09-01T00:04:15;2.05;;;0.65;;
56363;SDS011;42261;52.094;4.326;2022-09-01T00:07:02;3.42;;;0.85;;
56363;SDS011;42261;52.094;4.326;2022-09-01T00:09:47;1.48;;;0.70;;
56363;SDS011;42261;52.094;4.326;2022-09-01T00:12:32;2.47;;;0.75;;
56363;SDS011;42261;52.094;4.326;2022-09-01T00:15:17;0.70;;;0.57;;
56363;SDS011;42261;52.094;4.326;2022-09-01T00:18:02;1.00;;;0.60;;
56363;SDS011;42261;52.094;4.326;2022-09-01T00:20:47;1.33;;;0.60;;
56363;SDS011;42261;52.094;4.326;2022-09-01T00:23:31;0.80;;;0.60;;
56363;SDS011;42261;52.094;4.326;2022-09-01T00:26:15;1.65;;;0.80;;
56363;SDS011;42261;52.094;4.326;2022-09-01T00:29:00;1.40;;;0.70;;
56363;SDS011;42261;52.094;4.326;2022-09-01T00:31:44;4.18;;;0.88;;
56363;SDS011;42261;52.094;4.326;2022-09-01T00:34:28;1.55;;;0.75;;
56363;SDS011;42261;52.094;4.326;2022-09-01T00:37:12;1.38;;;0.70;;
56363;SDS011;42261;52.094;4.326;2022-09-01T00:39:57;2.38;;;0.68;;
56363;SDS011;42261;52.094;4.326;2022-09-01T00:42:41;0.95;;;0.57;;
56363;SDS011;42261;52.094;4.326;2022-09-01T00:45:27;1.58;;;0.90;;
56363;SDS011;42261;52.094;4.326;2022-09-01T00:48:13;0.85;;;0.55;;
56363;SDS011;42261;52.094;4.326;2022-09-01T00:53:53;1.65;;;0.70;;
56363;SDS011;42261;52.094;4.326;2022-09-01T00:56:39;1.08;;;0.63;;
56363;SDS011;42261;52.094;4.326;2022-09-01T00:59:24;0.90;;;0.60;;
56363;SDS011;42261;52.094;4.326;2022-09-01T01:02:09;2.70;;;0.90;;
56363;SDS011;42261;52.094;4.326;2022-09-01T01:04:54;2.22;;;0.68;;
56363;SDS011;42261;52.094;4.326;2022-09-01T01:07:42;1.35;;;0.77;;
56363;SDS011;42261;52.094;4.326;2022-09-01T01:10:28;2.00;;;0.80;;
56363;SDS011;42261;52.094;4.326;2022-09-01T01:13:15;2.83;;;0.90;;
56363;SDS011;42261;52.094;4.326;2022-09-01T01:16:00;3.78;;;0.60;;
56363;SDS011;42261;52.094;4.326;2022-09-01T01:18:46;1.20;;;0.60;;
56363;SDS011;42261;52.094;4.326;2022-09-01T01:21:40;1.48;;;0.80;;
56363;SDS011;42261;52.094;4.326;2022-09-01T01:24:45;0.98;;;0.60;;
56363;SDS011;42261;52.094;4.326;2022-09-01T01:27:32;1.48;;;0.80;;
56363;SDS011;42261;52.094;4.326;2022-09-01T01:30:18;2.78;;;0.73;;
56363;SDS011;42261;52.094;4.326;2022-09-01T01:33:04;1.58;;;0.80;;
56363;SDS011;42261;52.094;4.326;2022-09-01T01:35:49;4.07;;;0.90;;
56363;SDS011;42261;52.094;4.326;2022-09-01T01:38:34;2.47;;;0.63;;
56363;SDS011;42261;52.094;4.326;2022-09-01T01:41:19;1.42;;;0.70;;
56363;SDS011;42261;52.094;4.326;2022-09-01T01:44:04;1.08;;;0.60;;
56363;SDS011;42261;52.094;4.326;2022-09-01T01:46:49;0.90;;;0.70;;
56363;SDS011;42261;52.094;4.326;2022-09-01T01:49:35;1.27;;;0.90;;
56363;SDS011;42261;52.094;4.326;2022-09-01T01:52:20;1.90;;;0.80;;
56363;SDS011;42261;52.094;4.326;2022-09-01T01:55:04;4.05;;;0.80;;
56363;SDS011;42261;52.094;4.326;2022-09-01T01:57:54;1.20;;;0.80;;
56363;SDS011;42261;52.094;4.326;2022-09-01T02:00:38;1.50;;;0.80;;
56363;SDS011;42261;52.094;4.326;2022-09-01T02:03:30;7.65;;;1.10;;
56363;SDS011;42261;52.094;4.326;2022-09-01T02:06:21;2.30;;;0.80;;
56363;SDS011;42261;52.094;4.326;2022-09-01T02:09:08;2.03;;;0.70;;
56363;SDS011;42261;52.094;4.326;2022-09-01T02:11:52;3.42;;;1.00;;
56363;SDS011;42261;52.094;4.326;2022-09-01T02:14:39;2.05;;;0.82;;
56363;SDS011;42261;52.094;4.326;2022-09-01T02:17:23;1.70;;;0.68;;
56363;SDS011;42261;52.094;4.326;2022-09-01T02:20:09;2.60;;;0.80;;
56363;SDS011;42261;52.094;4.326;2022-09-01T02:22:53;1.40;;;0.80;;
56363;SDS011;42261;52.094;4.326;2022-09-01T02:25:39;2.95;;;0.70;;
56363;SDS011;42261;52.094;4.326;2022-09-01T02:28:27;3.05;;;0.88;;
56363;SDS011;42261;52.094;4.326;2022-09-01T02:31:14;1.95;;;1.00;;
56363;SDS011;42261;52.094;4.326;2022-09-01T02:34:07;1.35;;;1.00;;
56363;SDS011;42261;52.094;4.326;2022-09-01T02:36:56;3.15;;;0.70;;
56363;SDS011;42261;52.094;4.326;2022-09-01T02:39:41;1.20;;;0.82;;
56363;SDS011;42261;52.094;4.326;2022-09-01T02:42:25;2.25;;;0.90;;
56363;SDS011;42261;52.094;4.326;2022-09-01T02:45:12;1.25;;;0.82;;
56363;SDS011;42261;52.094;4.326;2022-09-01T02:47:58;2.00;;;0.75;;
56363;SDS011;42261;52.094;4.326;2022-09-01T02:50:42;2.47;;;0.77;;
56363;SDS011;42261;52.094;4.326;2022-09-01T02:53:27;1.17;;;0.70;;
56363;SDS011;42261;52.094;4.326;2022-09-01T02:56:14;1.73;;;0.80;;
56363;SDS011;42261;52.094;4.326;2022-09-01T02:58:59;2.05;;;0.85;;
56363;SDS011;42261;52.094;4.326;2022-09-01T03:01:46;1.60;;;0.60;;
56363;SDS011;42261;52.094;4.326;2022-09-01T03:04:31;3.50;;;0.85;;
56363;SDS011;42261;52.094;4.326;2022-09-01T03:07:17;1.58;;;0.82;;
56363;SDS011;42261;52.094;4.326;2022-09-01T03:10:05;2.53;;;1.17;;
56363;SDS011;42261;52.094;4.326;2022-09-01T03:12:52;3.10;;;0.93;;
56363;SDS011;42261;52.094;4.326;2022-09-01T03:15:37;1.90;;;0.80;;
56363;SDS011;42261;52.094;4.326;2022-09-01T03:18:23;1.88;;;1.00;;
56363;SDS011;42261;52.094;4.326;2022-09-01T03:21:08;1.88;;;0.90;;
56363;SDS011;42261;52.094;4.326;2022-09-01T03:23:57;2.60;;;1.30;;
56363;SDS011;42261;52.094;4.326;2022-09-01T03:26:45;2.80;;;1.33;;
56363;SDS011;42261;52.094;4.326;2022-09-01T03:29:31;1.13;;;0.77;;
56363;SDS011;42261;52.094;4.326;2022-09-01T03:32:15;1.08;;;0.60;;
56363;SDS011;42261;52.094;4.326;2022-09-01T03:34:59;2.05;;;1.10;;
56363;SDS011;42261;52.094;4.326;2022-09-01T03:37:43;3.55;;;0.90;;
56363;SDS011;42261;52.094;4.326;2022-09-01T03:40:29;1.40;;;0.80;;
56363;SDS011;42261;52.094;4.326;2022-09-01T03:43:19;1.45;;;0.80;;
56363;SDS011;42261;52.094;4.326;2022-09-01T03:46:07;1.92;;;1.00;;
56363;SDS011;42261;52.094;4.326;2022-09-01T03:48:53;1.48;;;0.90;;
56363;SDS011;42261;52.094;4.326;2022-09-01T03:51:42;2.20;;;0.70;;
56363;SDS011;42261;52.094;4.326;2022-09-01T03:54:27;2.47;;;0.90;;
56363;SDS011;42261;52.094;4.326;2022-09-01T03:57:13;1.92;;;1.00;;
56363;SDS011;42261;52.094;4.326;2022-09-01T03:59:59;2.97;;;0.95;;
56363;SDS011;42261;52.094;4.326;2022-09-01T04:02:43;1.20;;;0.88;;
56363;SDS011;42261;52.094;4.326;2022-09-01T04:05:28;1.98;;;0.85;;
56363;SDS011;42261;52.094;4.326;2022-09-01T04:08:14;1.83;;;0.80;;
56363;SDS011;42261;52.094;4.326;2022-09-01T04:11:09;2.88;;;0.90;;
56363;SDS011;42261;52.094;4.326;2022-09-01T04:13:56;1.35;;;1.00;;
56363;SDS011;42261;52.094;4.326;2022-09-01T04:16:44;1.70;;;0.90;;
56363;SDS011;42261;52.094;4.326;2022-09-01T04:19:47;1.85;;;1.00;;
56363;SDS011;42261;52.094;4.326;2022-09-01T04:22:32;2.95;;;1.15;;
56363;SDS011;42261;52.094;4.326;2022-09-01T04:25:21;2.20;;;1.00;;
56363;SDS011;42261;52.094;4.326;2022-09-01T04:28:09;4.50;;;0.90;;
56363;SDS011;42261;52.094;4.326;2022-09-01T04:31:01;1.33;;;1.00;;
56363;SDS011;42261;52.094;4.326;2022-09-01T04:33:52;2.05;;;1.00;;
56363;SDS011;42261;52.094;4.326;2022-09-01T04:36:36;1.02;;;0.90;;
56363;SDS011;42261;52.094;4.326;2022-09-01T04:39:21;1.73;;;1.00;;
56363;SDS011;42261;52.094;4.326;2022-09-01T04:42:06;3.10;;;1.02;;
56363;SDS011;42261;52.094;4.326;2022-09-01T04:44:52;3.53;;;1.10;;
56363;SDS011;42261;52.094;4.326;2022-09-01T04:47:37;1.38;;;0.82;;
56363;SDS011;42261;52.094;4.326;2022-09-01T04:50:24;1.67;;;1.00;;
56363;SDS011;42261;52.094;4.326;2022-09-01T04:53:13;2.00;;;0.85;;
56363;SDS011;42261;52.094;4.326;2022-09-01T04:56:01;2.35;;;1.10;;
56363;SDS011;42261;52.094;4.326;2022-09-01T04:58:50;4.40;;;0.90;;
56363;SDS011;42261;52.094;4.326;2022-09-01T05:01:38;2.75;;;1.10;;
56363;SDS011;42261;52.094;4.326;2022-09-01T05:04:27;3.40;;;1.00;;
56363;SDS011;42261;52.094;4.326;2022-09-01T05:07:15;1.40;;;1.00;;
56363;SDS011;42261;52.094;4.326;2022-09-01T05:10:00;1.60;;;0.73;;
56363;SDS011;42261;52.094;4.326;2022-09-01T05:12:45;1.85;;;1.08;;
56363;SDS011;42261;52.094;4.326;2022-09-01T05:15:29;2.83;;;0.90;;
56363;SDS011;42261;52.094;4.326;2022-09-01T05:18:18;1.45;;;1.00;;
56363;SDS011;42261;52.094;4.326;2022-09-01T05:21:07;2.95;;;1.00;;
56363;SDS011;42261;52.094;4.326;2022-09-01T05:23:53;3.88;;;0.90;;
56363;SDS011;42261;52.094;4.326;2022-09-01T05:26:39;2.47;;;1.10;;
56363;SDS011;42261;52.094;4.326;2022-09-01T05:29:27;4.15;;;1.00;;
56363;SDS011;42261;52.094;4.326;2022-09-01T05:32:13;2.28;;;1.00;;
56363;SDS011;42261;52.094;4.326;2022-09-01T05:34:57;2.20;;;1.10;;
56363;SDS011;42261;52.094;4.326;2022-09-01T05:37:43;2.83;;;1.00;;
56363;SDS011;42261;52.094;4.326;2022-09-01T05:40:28;2.70;;;1.00;;
56363;SDS011;42261;52.094;4.326;2022-09-01T05:43:13;1.67;;;1.10;;
56363;SDS011;42261;52.094;4.326;2022-09-01T05:45:58;1.70;;;0.82;;
56363;SDS011;42261;52.094;4.326;2022-09-01T05:48:46;2.80;;;1.10;;
56363;SDS011;42261;52.094;4.326;2022-09-01T05:51:33;2.45;;;1.20;;
56363;SDS011;42261;52.094;4.326;2022-09-01T05:54:20;5.28;;;1.08;;
56363;SDS011;42261;52.094;4.326;2022-09-01T05:57:08;1.73;;;1.17;;
56363;SDS011;42261;52.094;4.326;2022-09-01T05:59:53;2.08;;;1.10;;
56363;SDS011;42261;52.094;4.326;2022-09-01T06:02:38;6.95;;;0.98;;
56363;SDS011;42261;52.094;4.326;2022-09-01T06:05:23;1.77;;;0.90;;
56363;SDS011;42261;52.094;4.326;2022-09-01T06:08:10;3.88;;;1.20;;
56363;SDS011;42261;52.094;4.326;2022-09-01T06:10:57;3.08;;;1.23;;
56363;SDS011;42261;52.094;4.326;2022-09-01T06:13:41;2.15;;;1.10;;
56363;SDS011;42261;52.094;4.326;2022-09-01T06:16:26;10.27;;;1.77;;
56363;SDS011;42261;52.094;4.326;2022-09-01T06:19:12;40.28;;;3.65;;
56363;SDS011;42261;52.094;4.326;2022-09-01T06:21:57;4.60;;;1.50;;
56363;SDS011;42261;52.094;4.326;2022-09-01T06:24:42;12.52;;;1.70;;
56363;SDS011;42261;52.094;4.326;2022-09-01T06:27:26;12.07;;;1.65;;
56363;SDS011;42261;52.094;4.326;2022-09-01T06:30:11;38.53;;;4.15;;
56363;SDS011;42261;52.094;4.326;2022-09-01T06:33:01;22.55;;;2.05;;
56363;SDS011;42261;52.094;4.326;2022-09-01T06:35:48;12.65;;;1.67;;
56363;SDS011;42261;52.094;4.326;2022-09-01T06:38:32;6.28;;;1.40;;
56363;SDS011;42261;52.094;4.326;2022-09-01T06:41:17;2.58;;;1.20;;
56363;SDS011;42261;52.094;4.326;2022-09-01T06:44:02;6.43;;;1.30;;
56363;SDS011;42261;52.094;4.326;2022-09-01T06:46:50;4.13;;;1.17;;
56363;SDS011;42261;52.094;4.326;2022-09-01T06:49:35;5.03;;;1.27;;
56363;SDS011;42261;52.094;4.326;2022-09-01T06:52:23;3.92;;;1.40;;
56363;SDS011;42261;52.094;4.326;2022-09-01T06:55:11;4.78;;;1.23;;
56363;SDS011;42261;52.094;4.326;2022-09-01T06:57:56;3.75;;;1.40;;
56363;SDS011;42261;52.094;4.326;2022-09-01T07:00:42;7.93;;;2.17;;
56363;SDS011;42261;52.094;4.326;2022-09-01T07:03:26;4.72;;;1.48;;
56363;SDS011;42261;52.094;4.326;2022-09-01T07:06:10;5.55;;;1.13;;
56363;SDS011;42261;52.094;4.326;2022-09-01T07:08:56;7.10;;;1.80;;
56363;SDS011;42261;52.094;4.326;2022-09-01T07:11:41;9.25;;;1.70;;
56363;SDS011;42261;52.094;4.326;2022-09-01T07:14:25;6.97;;;1.60;;
56363;SDS011;42261;52.094;4.326;2022-09-01T07:17:09;3.58;;;1.52;;
56363;SDS011;42261;52.094;4.326;2022-09-01T07:19:58;4.93;;;1.10;;
56363;SDS011;42261;52.094;4.326;2022-09-01T07:22:42;2.58;;;1.20;;
56363;SDS011;42261;52.094;4.326;2022-09-01T07:25:27;4.03;;;1.30;;
56363;SDS011;42261;52.094;4.326;2022-09-01T07:28:12;2.10;;;1.40;;
56363;SDS011;42261;52.094;4.326;2022-09-01T07:30:59;1.92;;;1.27;;
56363;SDS011;42261;52.094;4.326;2022-09-01T07:33:44;4.35;;;1.48;;
56363;SDS011;42261;52.094;4.326;2022-09-01T07:36:33;3.15;;;1.38;;
56363;SDS011;42261;52.094;4.326;2022-09-01T07:39:20;8.90;;;2.00;;
56363;SDS011;42261;52.094;4.326;2022-09-01T07:42:04;5.18;;;1.38;;
56363;SDS011;42261;52.094;4.326;2022-09-01T07:44:52;15.32;;;1.80;;
56363;SDS011;42261;52.094;4.326;2022-09-01T07:47:37;5.45;;;1.30;;
56363;SDS011;42261;52.094;4.326;2022-09-01T07:50:22;4.38;;;1.30;;
56363;SDS011;42261;52.094;4.326;2022-09-01T07:53:09;5.20;;;1.50;;
56363;SDS011;42261;52.094;4.326;2022-09-01T07:55:55;2.15;;;1.00;;
56363;SDS011;42261;52.094;4.326;2022-09-01T07:58:42;2.53;;;1.10;;
56363;SDS011;42261;52.094;4.326;2022-09-01T08:01:26;4.43;;;1.38;;
56363;SDS011;42261;52.094;4.326;2022-09-01T08:04:11;2.13;;;1.23;;
56363;SDS011;42261;52.094;4.326;2022-09-01T08:06:56;3.38;;;1.45;;
56363;SDS011;42261;52.094;4.326;2022-09-01T08:09:41;4.25;;;1.67;;
56363;SDS011;42261;52.094;4.326;2022-09-01T08:12:26;5.72;;;1.63;;
56363;SDS011;42261;52.094;4.326;2022-09-01T08:15:10;1.92;;;0.93;;
56363;SDS011;42261;52.094;4.326;2022-09-01T08:17:55;7.43;;;1.52;;
56363;SDS011;42261;52.094;4.326;2022-09-01T08:20:42;4.30;;;1.48;;
56363;SDS011;42261;52.094;4.326;2022-09-01T08:23:30;4.80;;;1.88;;
56363;SDS011;42261;52.094;4.326;2022-09-01T08:26:17;2.80;;;1.50;;
56363;SDS011;42261;52.094;4.326;2022-09-01T08:29:02;4.05;;;1.40;;
56363;SDS011;42261;52.094;4.326;2022-09-01T08:31:46;10.05;;;1.70;;
56363;SDS011;42261;52.094;4.326;2022-09-01T08:34:32;4.25;;;1.33;;
56363;SDS011;42261;52.094;4.326;2022-09-01T08:37:17;4.65;;;1.50;;
56363;SDS011;42261;52.094;4.326;2022-09-01T08:40:04;1.60;;;1.40;;
56363;SDS011;42261;52.094;4.326;2022-09-01T08:42:52;3.28;;;1.70;;
56363;SDS011;42261;52.094;4.326;2022-09-01T08:45:56;6.32;;;1.70;;
56363;SDS011;42261;52.094;4.326;2022-09-01T08:48:41;3.13;;;1.33;;
56363;SDS011;42261;52.094;4.326;2022-09-01T08:51:38;6.25;;;1.60;;
56363;SDS011;42261;52.094;4.326;2022-09-01T08:57:40;4.32;;;1.80;;
56363;SDS011;42261;52.094;4.326;2022-09-01T09:00:28;4.53;;;1.50;;
56363;SDS011;42261;52.094;4.326;2022-09-01T09:09:06;2.83;;;1.73;;
56363;SDS011;42261;52.094;4.326;2022-09-01T09:18:19;3.05;;;1.30;;
56363;SDS011;42261;52.094;4.326;2022-09-01T09:21:08;1.95;;;1.40;;
56363;SDS011;42261;52.094;4.326;2022-09-01T09:24:43;4.20;;;1.50;;
56363;SDS011;42261;52.094;4.326;2022-09-01T09:27:43;3.17;;;1.67;;
56363;SDS011;42261;52.094;4.326;2022-09-01T09:30:32;2.90;;;1.55;;
56363;SDS011;42261;52.094;4.326;2022-09-01T09:33:32;3.58;;;1.30;;
56363;SDS011;42261;52.094;4.326;2022-09-01T09:36:22;2.38;;;1.40;;
56363;SDS011;42261;52.094;4.326;2022-09-01T09:39:18;1.92;;;1.50;;
56363;SDS011;42261;52.094;4.326;2022-09-01T09:42:05;3.38;;;1.73;;
56363;SDS011;42261;52.094;4.326;2022-09-01T09:44:52;1.90;;;1.52;;
56363;SDS011;42261;52.094;4.326;2022-09-01T09:47:43;3.70;;;1.50;;
56363;SDS011;42261;52.094;4.326;2022-09-01T09:50:34;2.88;;;1.45;;
56363;SDS011;42261;52.094;4.326;2022-09-01T09:53:25;2.53;;;1.42;;
56363;SDS011;42261;52.094;4.326;2022-09-01T09:58:58;7.20;;;2.20;;
56363;SDS011;42261;52.094;4.326;2022-09-01T10:01:44;4.68;;;1.65;;
56363;SDS011;42261;52.094;4.326;2022-09-01T10:04:35;2.40;;;1.40;;
56363;SDS011;42261;52.094;4.326;2022-09-01T10:07:26;4.10;;;1.60;;
56363;SDS011;42261;52.094;4.326;2022-09-01T10:16:18;5.43;;;1.98;;
56363;SDS011;42261;52.094;4.326;2022-09-01T10:19:13;4.28;;;1.40;;
56363;SDS011;42261;52.094;4.326;2022-09-01T10:21:58;2.15;;;1.13;;
56363;SDS011;42261;52.094;4.326;2022-09-01T10:24:42;14.50;;;1.60;;
56363;SDS011;42261;52.094;4.326;2022-09-01T10:27:31;1.73;;;1.08;;
56363;SDS011;42261;52.094;4.326;2022-09-01T10:30:20;6.10;;;1.27;;
56363;SDS011;42261;52.094;4.326;2022-09-01T10:33:04;4.32;;;1.13;;
56363;SDS011;42261;52.094;4.326;2022-09-01T10:35:51;2.08;;;1.20;;
56363;SDS011;42261;52.094;4.326;2022-09-01T10:38:36;6.78;;;1.20;;
56363;SDS011;42261;52.094;4.326;2022-09-01T10:44:56;42.97;;;5.78;;
56363;SDS011;42261;52.094;4.326;2022-09-01T10:47:40;12.35;;;2.10;;
56363;SDS011;42261;52.094;4.326;2022-09-01T10:50:27;1.92;;;0.80;;
56363;SDS011;42261;52.094;4.326;2022-09-01T10:53:57;8.07;;;1.15;;
56363;SDS011;42261;52.094;4.326;2022-09-01T11:02:23;1.48;;;0.60;;
56363;SDS011;42261;52.094;4.326;2022-09-01T11:07:51;1.10;;;0.52;;
56363;SDS011;42261;52.094;4.326;2022-09-01T11:10:44;5.85;;;0.70;;
56363;SDS011;42261;52.094;4.326;2022-09-01T11:22:31;3.35;;;0.73;;
56363;SDS011;42261;52.094;4.326;2022-09-01T11:25:39;3.08;;;0.82;;
56363;SDS011;42261;52.094;4.326;2022-09-01T11:31:16;5.00;;;0.73;;
56363;SDS011;42261;52.094;4.326;2022-09-01T11:34:15;2.15;;;0.50;;
56363;SDS011;42261;52.094;4.326;2022-09-01T11:37:01;3.92;;;0.90;;
56363;SDS011;42261;52.094;4.326;2022-09-01T11:39:47;4.40;;;1.15;;
56363;SDS011;42261;52.094;4.326;2022-09-01T11:42:42;3.95;;;0.95;;
56363;SDS011;42261;52.094;4.326;2022-09-01T11:45:28;11.70;;;1.23;;
56363;SDS011;42261;52.094;4.326;2022-09-01T11:48:14;7.45;;;1.23;;
56363;SDS011;42261;52.094;4.326;2022-09-01T11:51:00;5.30;;;1.02;;
56363;SDS011;42261;52.094;4.326;2022-09-01T11:53:46;3.03;;;0.88;;
56363;SDS011;42261;52.094;4.326;2022-09-01T11:56:30;5.90;;;0.93;;
56363;SDS011;42261;52.094;4.326;2022-09-01T11:59:29;1.52;;;0.70;;
56363;SDS011;42261;52.094;4.326;2022-09-01T12:02:28;2.03;;;0.70;;
56363;SDS011;42261;52.094;4.326;2022-09-01T12:05:25;5.45;;;0.88;;
56363;SDS011;42261;52.094;4.326;2022-09-01T12:08:17;1.15;;;0.85;;
56363;SDS011;42261;52.094;4.326;2022-09-01T12:11:07;1.10;;;0.98;;
56363;SDS011;42261;52.094;4.326;2022-09-01T12:13:56;2.70;;;0.75;;
56363;SDS011;42261;52.094;4.326;2022-09-01T12:16:43;4.75;;;0.82;;
56363;SDS011;42261;52.094;4.326;2022-09-01T12:19:29;1.08;;;0.73;;
56363;SDS011;42261;52.094;4.326;2022-09-01T12:22:16;2.25;;;0.77;;
56363;SDS011;42261;52.094;4.326;2022-09-01T12:25:04;11.00;;;1.20;;
56363;SDS011;42261;52.094;4.326;2022-09-01T12:27:50;1.42;;;1.08;;
56363;SDS011;42261;52.094;4.326;2022-09-01T12:30:36;3.13;;;0.88;;
56363;SDS011;42261;52.094;4.326;2022-09-01T12:33:23;1.65;;;0.80;;
56363;SDS011;42261;52.094;4.326;2022-09-01T12:36:18;1.92;;;0.70;;
56363;SDS011;42261;52.094;4.326;2022-09-01T12:42:08;2.33;;;0.88;;
56363;SDS011;42261;52.094;4.326;2022-09-01T12:45:03;2.05;;;0.80;;
56363;SDS011;42261;52.094;4.326;2022-09-01T12:47:50;1.83;;;0.85;;
56363;SDS011;42261;52.094;4.326;2022-09-01T12:50:35;5.50;;;0.80;;
56363;SDS011;42261;52.094;4.326;2022-09-01T12:53:21;1.73;;;0.80;;
56363;SDS011;42261;52.094;4.326;2022-09-01T12:56:20;3.33;;;0.80;;
56363;SDS011;42261;52.094;4.326;2022-09-01T12:59:14;1.17;;;0.60;;
56363;SDS011;42261;52.094;4.326;2022-09-01T13:08:06;1.05;;;0.60;;
56363;SDS011;42261;52.094;4.326;2022-09-01T13:11:02;0.90;;;0.55;;
56363;SDS011;42261;52.094;4.326;2022-09-01T13:13:46;0.90;;;0.60;;
56363;SDS011;42261;52.094;4.326;2022-09-01T13:16:31;1.15;;;0.60;;
56363;SDS011;42261;52.094;4.326;2022-09-01T13:19:15;1.33;;;0.60;;
56363;SDS011;42261;52.094;4.326;2022-09-01T13:22:00;0.85;;;0.63;;
56363;SDS011;42261;52.094;4.326;2022-09-01T13:24:44;1.77;;;0.70;;
56363;SDS011;42261;52.094;4.326;2022-09-01T13:27:28;1.23;;;0.60;;
56363;SDS011;42261;52.094;4.326;2022-09-01T13:30:14;1.58;;;0.63;;
56363;SDS011;42261;52.094;4.326;2022-09-01T13:33:01;2.30;;;0.63;;
56363;SDS011;42261;52.094;4.326;2022-09-01T13:35:45;3.05;;;0.65;;
56363;SDS011;42261;52.094;4.326;2022-09-01T13:38:30;2.88;;;0.52;;
56363;SDS011;42261;52.094;4.326;2022-09-01T13:41:14;1.52;;;0.50;;
56363;SDS011;42261;52.094;4.326;2022-09-01T13:44:01;3.33;;;0.73;;
56363;SDS011;42261;52.094;4.326;2022-09-01T13:46:46;2.72;;;0.60;;
56363;SDS011;42261;52.094;4.326;2022-09-01T13:49:30;2.92;;;0.77;;
56363;SDS011;42261;52.094;4.326;2022-09-01T13:52:15;1.80;;;0.50;;
56363;SDS011;42261;52.094;4.326;2022-09-01T13:54:59;1.98;;;0.55;;
56363;SDS011;42261;52.094;4.326;2022-09-01T13:57:44;1.27;;;0.57;;
56363;SDS011;42261;52.094;4.326;2022-09-01T14:00:30;1.08;;;0.50;;
56363;SDS011;42261;52.094;4.326;2022-09-01T14:03:22;2.00;;;0.70;;
56363;SDS011;42261;52.094;4.326;2022-09-01T14:06:07;1.48;;;0.57;;
56363;SDS011;42261;52.094;4.326;2022-09-01T14:08:55;2.40;;;0.70;;
56363;SDS011;42261;52.094;4.326;2022-09-01T14:11:41;3.47;;;0.80;;
56363;SDS011;42261;52.094;4.326;2022-09-01T14:14:25;1.10;;;0.65;;
56363;SDS011;42261;52.094;4.326;2022-09-01T14:17:09;1.48;;;0.60;;
56363;SDS011;42261;52.094;4.326;2022-09-01T14:19:54;3.53;;;0.65;;
56363;SDS011;42261;52.094;4.326;2022-09-01T14:22:41;1.85;;;0.55;;
56363;SDS011;42261;52.094;4.326;2022-09-01T14:25:25;0.52;;;0.50;;
56363;SDS011;42261;52.094;4.326;2022-09-01T14:28:10;1.05;;;0.40;;
56363;SDS011;42261;52.094;4.326;2022-09-01T14:30:54;1.50;;;0.80;;
56363;SDS011;42261;52.094;4.326;2022-09-01T14:33:39;1.48;;;0.50;;
56363;SDS011;42261;52.094;4.326;2022-09-01T14:36:27;0.70;;;0.40;;
56363;SDS011;42261;52.094;4.326;2022-09-01T14:39:11;8.52;;;0.60;;
56363;SDS011;42261;52.094;4.326;2022-09-01T14:41:56;1.05;;;0.70;;
56363;SDS011;42261;52.094;4.326;2022-09-01T14:44:40;2.33;;;0.50;;
56363;SDS011;42261;52.094;4.326;2022-09-01T14:47:27;1.05;;;0.50;;
56363;SDS011;42261;52.094;4.326;2022-09-01T14:50:14;1.80;;;0.50;;
56363;SDS011;42261;52.094;4.326;2022-09-01T14:53:00;1.05;;;0.40;;
56363;SDS011;42261;52.094;4.326;2022-09-01T14:55:45;1.70;;;0.50;;
56363;SDS011;42261;52.094;4.326;2022-09-01T14:58:29;1.30;;;0.43;;
56363;SDS011;42261;52.094;4.326;2022-09-01T15:01:14;3.72;;;0.50;;
56363;SDS011;42261;52.094;4.326;2022-09-01T15:04:00;3.63;;;0.43;;
56363;SDS011;42261;52.094;4.326;2022-09-01T15:06:45;1.55;;;0.60;;
56363;SDS011;42261;52.094;4.326;2022-09-01T15:09:29;0.60;;;0.40;;
56363;SDS011;42261;52.094;4.326;2022-09-01T15:12:14;2.25;;;0.50;;
56363;SDS011;42261;52.094;4.326;2022-09-01T15:14:58;1.75;;;0.43;;
56363;SDS011;42261;52.094;4.326;2022-09-01T15:17:43;2.70;;;0.40;;
56363;SDS011;42261;52.094;4.326;2022-09-01T15:20:28;4.80;;;0.30;;
56363;SDS011;42261;52.094;4.326;2022-09-01T15:23:31;0.90;;;0.60;;
56363;SDS011;42261;52.094;4.326;2022-09-01T15:26:16;1.25;;;0.60;;
56363;SDS011;42261;52.094;4.326;2022-09-01T15:29:00;3.50;;;0.60;;
56363;SDS011;42261;52.094;4.326;2022-09-01T15:31:45;0.45;;;0.32;;
56363;SDS011;42261;52.094;4.326;2022-09-01T15:34:29;3.55;;;0.50;;
56363;SDS011;42261;52.094;4.326;2022-09-01T15:37:13;1.65;;;0.40;;
56363;SDS011;42261;52.094;4.326;2022-09-01T15:39:58;1.20;;;0.47;;
56363;SDS011;42261;52.094;4.326;2022-09-01T15:42:43;1.08;;;0.63;;
56363;SDS011;42261;52.094;4.326;2022-09-01T15:45:27;1.33;;;0.50;;
56363;SDS011;42261;52.094;4.326;2022-09-01T15:48:12;1.92;;;0.55;;
56363;SDS011;42261;52.094;4.326;2022-09-01T15:59:43;1.02;;;0.40;;
56363;SDS011;42261;52.094;4.326;2022-09-01T16:02:29;2.45;;;0.60;;
56363;SDS011;42261;52.094;4.326;2022-09-01T16:05:13;1.60;;;0.50;;
56363;SDS011;42261;52.094;4.326;2022-09-01T16:07:59;2.05;;;0.50;;
56363;SDS011;42261;52.094;4.326;2022-09-01T16:10:51;2.50;;;0.57;;
56363;SDS011;42261;52.094;4.326;2022-09-01T16:13:39;1.13;;;0.70;;
56363;SDS011;42261;52.094;4.326;2022-09-01T16:16:28;2.13;;;0.57;;
56363;SDS011;42261;52.094;4.326;2022-09-01T16:19:40;2.22;;;0.50;;
56363;SDS011;42261;52.094;4.326;2022-09-01T16:22:42;1.17;;;0.50;;
56363;SDS011;42261;52.094;4.326;2022-09-01T16:25:33;1.00;;;0.43;;
56363;SDS011;42261;52.094;4.326;2022-09-01T16:31:11;1.92;;;0.70;;
56363;SDS011;42261;52.094;4.326;2022-09-01T16:33:56;2.08;;;0.50;;
56363;SDS011;42261;52.094;4.326;2022-09-01T16:37:03;4.25;;;0.55;;
56363;SDS011;42261;52.094;4.326;2022-09-01T16:40:18;2.08;;;0.70;;
56363;SDS011;42261;52.094;4.326;2022-09-01T16:43:27;1.90;;;0.60;;
56363;SDS011;42261;52.094;4.326;2022-09-01T16:46:23;1.45;;;0.50;;
56363;SDS011;42261;52.094;4.326;2022-09-01T16:52:07;2.25;;;0.80;;
56363;SDS011;42261;52.094;4.326;2022-09-01T16:55:19;0.75;;;0.60;;
56363;SDS011;42261;52.094;4.326;2022-09-01T17:01:50;2.70;;;0.60;;
56363;SDS011;42261;52.094;4.326;2022-09-01T17:07:45;0.40;;;0.40;;
56363;SDS011;42261;52.094;4.326;2022-09-01T17:13:31;2.50;;;0.70;;
56363;SDS011;42261;52.094;4.326;2022-09-01T17:16:26;2.25;;;0.60;;
56363;SDS011;42261;52.094;4.326;2022-09-01T17:19:17;2.55;;;0.60;;
56363;SDS011;42261;52.094;4.326;2022-09-01T17:22:04;2.47;;;0.55;;
56363;SDS011;42261;52.094;4.326;2022-09-01T17:24:55;1.20;;;0.60;;
56363;SDS011;42261;52.094;4.326;2022-09-01T17:30:38;0.82;;;0.45;;
56363;SDS011;42261;52.094;4.326;2022-09-01T17:36:46;4.38;;;0.57;;
56363;SDS011;42261;52.094;4.326;2022-09-01T17:39:53;1.20;;;0.50;;
56363;SDS011;42261;52.094;4.326;2022-09-01T17:42:52;1.90;;;0.60;;
56363;SDS011;42261;52.094;4.326;2022-09-01T17:45:50;2.03;;;0.50;;
56363;SDS011;42261;52.094;4.326;2022-09-01T17:52:35;1.67;;;0.40;;
56363;SDS011;42261;52.094;4.326;2022-09-01T17:59:00;0.85;;;0.50;;
56363;SDS011;42261;52.094;4.326;2022-09-01T18:02:19;0.77;;;0.50;;
56363;SDS011;42261;52.094;4.326;2022-09-01T18:05:25;0.98;;;0.40;;
56363;SDS011;42261;52.094;4.326;2022-09-01T18:11:17;2.10;;;0.60;;
56363;SDS011;42261;52.094;4.326;2022-09-01T18:20:06;1.60;;;0.60;;
56363;SDS011;42261;52.094;4.326;2022-09-01T18:22:55;1.05;;;0.60;;
56363;SDS011;42261;52.094;4.326;2022-09-01T18:25:53;3.70;;;0.60;;
56363;SDS011;42261;52.094;4.326;2022-09-01T18:28:40;2.22;;;1.00;;
56363;SDS011;42261;52.094;4.326;2022-09-01T18:31:30;0.85;;;0.60;;
56363;SDS011;42261;52.094;4.326;2022-09-01T18:40:44;0.98;;;0.50;;
56363;SDS011;42261;52.094;4.326;2022-09-01T18:43:56;2.80;;;0.60;;
56363;SDS011;42261;52.094;4.326;2022-09-01T18:46:53;1.25;;;0.60;;